This is the latest recevied weather packets stored in our database for station/object WJ9H. If no packets are shown the sender has not sent any weather packets the latest 10 day(s).
| Time | Temp. | Humidity | Pressure | Rain* | Wind** | Luminosity | Snow |
|---|---|---|---|---|---|---|---|
| 1777085375 | 12.78° C | - | 1011.9 hPa | 0 mm | - | - | - |
| 1777084909 | 12.78° C | - | 1011.9 hPa | 0 mm | - | - | - |
| 1777084774 | 12.78° C | - | 1011.9 hPa | 0 mm | - | - | - |
| 1777084214 | 12.78° C | - | 1011.6 hPa | 0 mm | - | - | - |
| 1777084174 | 12.78° C | - | 1011.6 hPa | 0 mm | - | - | - |
| 1777083573 | 12.78° C | - | 1011.6 hPa | 0 mm | - | - | - |
| 1777083014 | 13.33° C | - | 1011.2 hPa | 0 mm | - | - | - |
| 1777082977 | 13.33° C | - | 1010.9 hPa | 0 mm | - | - | - |
| 1777082973 | 13.33° C | - | 1011.2 hPa | 0 mm | - | - | - |
| 1777082378 | 13.89° C | - | 1010.9 hPa | 0 mm | - | - | - |
| 1777082375 | 13.33° C | - | 1011.2 hPa | 0 mm | - | - | - |
| 1777082252 | 13.89° C | - | 1010.5 hPa | 0 mm | - | - | - |
| 1777081814 | 13.33° C | - | 1010.9 hPa | 0 mm | - | - | - |
| 1777081775 | 13.33° C | - | 1010.9 hPa | 0 mm | - | - | - |
| 1777081308 | 14.44° C | - | 1010.5 hPa | 0 mm | - | - | - |
| 1777081177 | 13.89° C | - | 1010.9 hPa | 0 mm | - | - | - |
| 1777080615 | 13.89° C | - | 1010.5 hPa | 0 mm | - | - | - |
| 1777080577 | 14.44° C | - | 1010.2 hPa | 0 mm | - | - | - |
| 1777080575 | 13.89° C | - | 1010.5 hPa | 0 mm | - | - | - |
| 1777080447 | 14.44° C | - | 1010.2 hPa | 0 mm | - | - | - |
| 1777079975 | 14.44° C | - | 1010.5 hPa | 0 mm | - | - | - |
| 1777079880 | 15° C | - | 1010.2 hPa | 0 mm | - | - | - |
| 1777079415 | 14.44° C | - | 1010.2 hPa | 0 mm | - | - | - |
| 1777079375 | 14.44° C | - | 1010.2 hPa | 0 mm | - | - | - |
| 1777079235 | 15.56° C | - | 1009.9 hPa | 0 mm | - | - | - |
* Rain latest hour (hover to see other rain measurements)
** Current wind speed in m/s (hover to see current wind gust speed)